Time;durP1;ratioP1;P1;durP2;ratioP2;P2;SDS_P1;SDS_P2;PMS_P1;PMS_P2;Temp;Humidity;BMP_temperature;BMP_pressure;BME280_temperature;BME280_humidity;BME280_pressure;Samples;Min_cycle;Max_cycle;Signal;HPM_P1;HPM_P2
2023/02/11 00:01:59;;;;;;;34.75;12.45;;;;;;;-6.52;100.00;99355.84;5070196;28;20038;-79
2023/02/11 00:04:25;;;;;;;51.67;19.08;;;;;;;-6.62;100.00;99331.22;5073076;28;20038;-80
2023/02/11 00:06:51;;;;;;;41.47;17.23;;;;;;;-6.63;100.00;99345.03;5060608;28;20027;-79
2023/02/11 00:09:16;;;;;;;53.42;19.27;;;;;;;-6.75;100.00;99345.50;5082917;28;20032;-80
2023/02/11 00:11:42;;;;;;;52.78;19.05;;;;;;;-6.67;100.00;99343.16;5060665;28;20112;-79
2023/02/11 00:14:09;;;;;;;57.17;22.08;;;;;;;-6.77;100.00;99336.78;5059235;28;20031;-79
2023/02/11 00:16:35;;;;;;;56.60;21.83;;;;;;;-6.70;100.00;99358.66;5059278;28;20048;-80
2023/02/11 00:19:01;;;;;;;55.88;18.50;;;;;;;-6.72;100.00;99345.63;5085558;28;20039;-79
2023/02/11 00:21:27;;;;;;;58.55;20.67;;;;;;;-6.81;100.00;99334.91;5072279;28;20032;-79
2023/02/11 00:23:53;;;;;;;46.78;16.52;;;;;;;-6.81;100.00;99339.22;5073748;28;20039;-79
2023/02/11 00:26:21;;;;;;;39.92;15.45;;;;;;;-6.73;100.00;99340.34;5071119;28;20035;-79
2023/02/11 00:28:48;;;;;;;55.13;22.20;;;;;;;-6.66;100.00;99344.94;5079665;28;20401;-78
2023/02/11 00:31:15;;;;;;;51.95;20.90;;;;;;;-6.70;100.00;99323.13;5079322;28;20039;-79
2023/02/11 00:33:41;;;;;;;49.22;19.20;;;;;;;-6.68;100.00;99328.41;5093689;28;20039;-79
2023/02/11 00:36:10;;;;;;;48.78;17.35;;;;;;;-6.57;100.00;99342.66;5067237;28;20479;-80
2023/02/11 00:38:37;;;;;;;41.58;17.77;;;;;;;-6.60;100.00;99321.72;5079296;28;20051;-79
2023/02/11 00:41:02;;;;;;;49.15;18.50;;;;;;;-6.48;100.00;99337.75;5065402;28;20035;-80
2023/02/11 00:43:28;;;;;;;42.05;17.30;;;;;;;-6.48;100.00;99329.94;5062123;28;20031;-79
2023/02/11 00:45:53;;;;;;;43.47;16.05;;;;;;;-6.51;100.00;99324.63;5059013;28;20541;-79
2023/02/11 00:48:19;;;;;;;39.97;15.00;;;;;;;-6.67;100.00;99305.03;5059167;28;20031;-80
2023/02/11 00:50:45;;;;;;;56.40;17.25;;;;;;;-6.56;100.00;99331.41;5078516;28;20123;-80
2023/02/11 00:53:10;;;;;;;38.05;16.15;;;;;;;-6.79;100.00;99302.00;5059006;28;20562;-80
2023/02/11 00:55:36;;;;;;;64.05;23.35;;;;;;;-6.82;100.00;99312.31;5074187;28;20119;-81
2023/02/11 00:58:01;;;;;;;65.65;23.83;;;;;;;-6.81;100.00;99334.00;5067720;28;20465;-80
2023/02/11 01:00:27;;;;;;;36.78;14.73;;;;;;;-6.89;100.00;99325.94;5078982;28;20023;-79
2023/02/11 01:02:53;;;;;;;39.20;15.43;;;;;;;-6.79;100.00;99329.72;5061617;28;20498;-79
2023/02/11 01:05:19;;;;;;;27.45;12.93;;;;;;;-6.82;100.00;99342.63;5058903;28;20020;-80
2023/02/11 01:07:44;;;;;;;36.35;13.30;;;;;;;-6.96;100.00;99330.88;5058767;28;20035;-81
2023/02/11 01:10:10;;;;;;;36.95;14.90;;;;;;;-7.05;100.00;99325.34;5061321;28;20028;-81
2023/02/11 01:12:37;;;;;;;28.08;11.77;;;;;;;-7.09;100.00;99345.16;5067028;28;20036;-81
2023/02/11 01:15:04;;;;;;;32.22;13.05;;;;;;;-7.25;100.00;99325.50;5058188;28;20138;-79
2023/02/11 01:17:29;;;;;;;27.80;12.10;;;;;;;-7.21;100.00;99335.22;5075475;28;20028;-78
2023/02/11 01:19:56;;;;;;;35.47;14.55;;;;;;;-7.04;100.00;99340.13;5075578;28;20114;-78
2023/02/11 01:22:21;;;;;;;29.63;12.88;;;;;;;-7.07;100.00;99340.03;5058279;28;20035;-78
2023/02/11 01:24:47;;;;;;;32.60;13.90;;;;;;;-7.09;100.00;99341.66;5073034;28;20027;-80
2023/02/11 01:27:13;;;;;;;52.25;18.15;;;;;;;-7.08;100.00;99322.66;5060530;28;20119;-80
2023/02/11 01:29:38;;;;;;;42.33;17.45;;;;;;;-7.00;100.00;99318.59;5076040;28;20024;-80
2023/02/11 01:32:04;;;;;;;44.03;17.23;;;;;;;-6.96;100.00;99323.06;5095484;28;20066;-78
2023/02/11 01:34:29;;;;;;;42.28;15.85;;;;;;;-7.04;100.00;99306.34;5069131;28;20032;-79
2023/02/11 01:36:58;;;;;;;36.97;13.88;;;;;;;-7.00;100.00;99321.19;5078290;28;20116;-78
2023/02/11 01:39:25;;;;;;;33.90;11.82;;;;;;;-7.00;100.00;99321.19;5067155;28;20513;-79
2023/02/11 01:41:51;;;;;;;63.00;19.75;;;;;;;-6.94;100.00;99324.91;5072629;28;20024;-78
2023/02/11 01:44:21;;;;;;;38.95;15.48;;;;;;;-7.16;100.00;99293.75;5078274;28;20403;-79
2023/02/11 01:46:47;;;;;;;47.70;18.10;;;;;;;-7.29;100.00;99276.84;5113326;28;20016;-79
2023/02/11 01:49:17;;;;;;;60.42;18.88;;;;;;;-7.02;100.00;99307.25;5090077;28;20119;-78
2023/02/11 01:51:51;;;;;;;69.55;23.25;;;;;;;-7.16;100.00;99302.44;5075100;28;20376;-80
2023/02/11 02:00:13;;;;;;;48.55;16.27;;;;;;;-7.32;100.00;99317.47;5097526;28;20030;-78
2023/02/11 02:02:43;;;;;;;38.55;12.30;;;;;;;-7.44;100.00;99323.06;5086731;28;20020;-79
2023/02/11 02:05:15;;;;;;;32.78;11.25;;;;;;;-7.43;100.00;99318.75;5061844;28;20031;-79
2023/02/11 02:08:13;;;;;;;25.48;10.82;;;;;;;-7.42;100.00;99328.34;5097505;28;20113;-80
2023/02/11 02:10:45;;;;;;;43.40;13.95;;;;;;;-7.56;100.00;99325.22;5056893;28;20496;-79
2023/02/11 02:13:10;;;;;;;35.30;11.48;;;;;;;-7.56;100.00;99317.41;5074037;28;20111;-80
2023/02/11 02:15:38;;;;;;;36.63;12.82;;;;;;;-7.64;100.00;99311.06;5065772;28;20074;-80
2023/02/11 02:18:21;;;;;;;35.88;12.48;;;;;;;-7.58;100.00;99324.28;5057327;28;20027;-80
2023/02/11 02:21:03;;;;;;;26.23;10.40;;;;;;;-7.51;100.00;99331.50;5091308;28;20402;-81
2023/02/11 02:23:37;;;;;;;24.30;11.10;;;;;;;-7.53;100.00;99316.66;5094244;28;20470;-80
2023/02/11 02:26:08;;;;;;;29.17;10.80;;;;;;;-7.48;100.00;99330.72;5091995;28;20038;-80
2023/02/11 02:28:53;;;;;;;54.10;16.83;;;;;;;-7.53;100.00;99322.72;5098658;28;20035;-80
2023/02/11 02:31:50;;;;;;;63.60;20.85;;;;;;;-7.83;100.00;99301.69;5074844;28;20043;-79
2023/02/11 02:34:29;;;;;;;48.83;17.38;;;;;;;-7.60;100.00;99325.94;5068612;28;20051;-80
2023/02/11 02:36:58;;;;;;;63.22;20.50;;;;;;;-7.54;100.00;99327.88;5072555;28;20470;-79
2023/02/11 02:39:27;;;;;;;47.67;19.27;;;;;;;-7.54;100.00;99326.19;5057262;28;20024;-80
2023/02/11 02:41:53;;;;;;;45.30;16.58;;;;;;;-7.45;100.00;99333.41;5068056;28;20028;-79
2023/02/11 02:44:19;;;;;;;45.72;16.63;;;;;;;-7.62;100.00;99318.91;5073107;28;20083;-80
2023/02/11 02:46:45;;;;;;;40.42;14.90;;;;;;;-7.71;100.00;99307.34;5076639;28;20035;-80
2023/02/11 02:49:12;;;;;;;38.03;16.35;;;;;;;-7.55;100.00;99324.41;5065851;28;20411;-81
2023/02/11 02:51:53;;;;;;;41.38;14.77;;;;;;;-7.48;100.00;99336.78;5056704;28;20034;-80
2023/02/11 02:54:35;;;;;;;44.22;16.42;;;;;;;-7.59;100.00;99317.31;5073391;28;20043;-80
2023/02/11 02:57:24;;;;;;;42.53;16.23;;;;;;;-7.59;100.00;99326.81;5104200;28;20042;-80
2023/02/11 03:00:22;;;;;;;45.30;15.95;;;;;;;-7.68;100.00;99314.38;5063656;28;20031;-80
2023/02/11 03:02:51;;;;;;;41.60;15.05;;;;;;;-7.77;100.00;99311.41;5071651;28;20065;-80
2023/02/11 03:05:22;;;;;;;42.33;18.63;;;;;;;-7.82;100.00;99302.59;5076079;28;20495;-80
2023/02/11 03:07:48;;;;;;;50.35;19.55;;;;;;;-7.83;100.00;99306.00;5056558;28;20028;-81
2023/02/11 03:10:35;;;;;;;53.63;19.92;;;;;;;-7.90;100.00;99293.59;5078511;28;20032;-80
2023/02/11 03:13:01;;;;;;;50.42;19.65;;;;;;;-7.77;100.00;99311.41;5076390;28;20031;-80
2023/02/11 03:15:29;;;;;;;56.17;19.83;;;;;;;-7.92;100.00;99300.47;5072857;28;20051;-80
2023/02/11 03:17:58;;;;;;;50.15;19.02;;;;;;;-7.96;100.00;99298.56;5061967;28;20040;-80
2023/02/11 03:20:24;;;;;;;52.25;20.02;;;;;;;-7.98;100.00;99295.03;5078137;28;20563;-80
2023/02/11 03:22:52;;;;;;;59.13;20.17;;;;;;;-7.84;100.00;99314.59;5068403;28;20055;-80
2023/02/11 03:25:18;;;;;;;46.25;18.40;;;;;;;-7.88;100.00;99300.66;5075864;28;20033;-80
2023/02/11 03:28:13;;;;;;;51.35;18.70;;;;;;;-7.80;100.00;99317.38;5058388;28;20468;-79
2023/02/11 03:30:43;;;;;;;44.35;15.60;;;;;;;-7.86;100.00;99314.56;5055068;28;20036;-80
2023/02/11 03:33:24;;;;;;;43.38;16.90;;;;;;;-7.96;100.00;99308.94;5050468;28;20059;-79
2023/02/11 03:35:56;;;;;;;38.70;15.75;;;;;;;-8.06;100.00;99302.53;5053847;28;20467;-80
2023/02/11 03:38:32;;;;;;;38.65;14.07;;;;;;;-8.17;100.00;99292.53;5069383;28;20123;-80
2023/02/11 03:40:59;;;;;;;46.15;18.23;;;;;;;-8.27;100.00;99317.25;5061835;28;20059;-80
2023/02/11 03:43:32;;;;;;;61.22;20.25;;;;;;;-8.17;100.00;99311.59;5058521;28;20028;-79
2023/02/11 03:45:59;;;;;;;69.82;20.88;;;;;;;-8.14;100.00;99303.03;5054713;28;20072;-79
2023/02/11 03:48:29;;;;;;;152.50;42.95;;;;;;;-8.01;100.00;99320.88;5061514;28;20107;-79
2023/02/11 03:50:57;;;;;;;152.82;42.92;;;;;;;-8.01;100.00;99320.88;5052433;28;20476;-80
2023/02/11 03:53:22;;;;;;;156.70;43.45;;;;;;;-8.10;100.00;99312.72;5052630;28;20082;-79
2023/02/11 03:55:49;;;;;;;105.00;31.83;;;;;;;-8.12;100.00;99320.44;5069605;28;20021;-80
2023/02/11 03:58:15;;;;;;;53.92;19.55;;;;;;;-8.23;100.00;99306.16;5069698;28;20024;-80
2023/02/11 04:00:42;;;;;;;79.13;27.35;;;;;;;-8.14;100.00;99318.63;5068616;28;20153;-80
2023/02/11 04:03:08;;;;;;;76.78;25.00;;;;;;;-8.17;100.00;99310.72;5076436;28;20032;-79
2023/02/11 04:05:34;;;;;;;66.57;26.13;;;;;;;-8.29;100.00;99274.81;5087238;28;20040;-79
2023/02/11 04:07:59;;;;;;;88.32;27.45;;;;;;;-8.13;100.00;99278.88;5056296;28;20025;-77
2023/02/11 04:10:25;;;;;;;97.13;32.00;;;;;;;-8.05;100.00;99293.00;5069814;28;20085;-79
2023/02/11 04:12:51;;;;;;;50.22;18.33;;;;;;;-8.02;100.00;99308.72;5076348;28;20111;-79
2023/02/11 04:15:16;;;;;;;52.05;18.13;;;;;;;-8.00;100.00;99315.75;5071281;28;20051;-80
2023/02/11 04:17:42;;;;;;;41.90;15.80;;;;;;;-7.95;100.00;99310.72;5096686;28;20032;-81
2023/02/11 04:20:08;;;;;;;66.82;24.35;;;;;;;-7.95;100.00;99300.34;5063365;28;20107;-83
2023/02/11 04:22:34;;;;;;;76.88;25.42;;;;;;;-7.97;100.00;99289.91;5059689;28;20032;-79
2023/02/11 04:24:59;;;;;;;63.08;23.98;;;;;;;-8.09;100.00;99267.78;5059529;28;20046;-80
2023/02/11 04:27:25;;;;;;;53.92;21.52;;;;;;;-8.17;100.00;99271.78;5067859;28;20044;-79
2023/02/11 04:29:50;;;;;;;60.20;22.90;;;;;;;-8.17;100.00;99276.97;5092714;28;20376;-80
2023/02/11 04:32:16;;;;;;;63.35;23.92;;;;;;;-8.06;100.00;99288.66;5079108;28;20023;-80
2023/02/11 04:34:41;;;;;;;84.47;24.40;;;;;;;-8.19;100.00;99268.25;5071248;28;20055;-81
2023/02/11 04:37:07;;;;;;;66.80;24.17;;;;;;;-8.24;100.00;99281.03;5077966;28;20538;-81
2023/02/11 04:39:33;;;;;;;42.20;17.65;;;;;;;-8.61;100.00;99241.56;5073464;28;20021;-81
2023/02/11 04:41:59;;;;;;;46.95;18.80;;;;;;;-8.48;100.00;99260.25;5062596;28;20494;-81
2023/02/11 04:44:24;;;;;;;37.97;13.80;;;;;;;-8.54;100.00;99234.06;5078522;28;20061;-81
2023/02/11 04:46:50;;;;;;;28.05;10.88;;;;;;;-8.38;100.00;99264.97;5066197;28;20402;-81
2023/02/11 04:49:16;;;;;;;26.65;11.20;;;;;;;-8.47;100.00;99264.63;5059209;28;20085;-81
2023/02/11 04:51:43;;;;;;;46.25;15.95;;;;;;;-8.48;100.00;99244.69;5059254;28;20031;-81
2023/02/11 04:54:09;;;;;;;37.15;13.27;;;;;;;-8.28;100.00;99274.91;5075834;28;20045;-81
2023/02/11 04:56:34;;;;;;;39.53;14.82;;;;;;;-8.46;100.00;99249.94;5078891;28;20422;-81
2023/02/11 04:59:00;;;;;;;39.38;16.95;;;;;;;-8.47;100.00;99251.66;5078867;28;20030;-81
2023/02/11 05:01:25;;;;;;;46.05;17.75;;;;;;;-8.41;100.00;99277.81;5095636;28;20109;-81
2023/02/11 05:03:51;;;;;;;42.58;15.82;;;;;;;-8.70;100.00;99217.84;5066229;28;20544;-80
2023/02/11 05:06:17;;;;;;;43.30;16.42;;;;;;;-8.34;100.00;99282.44;5084012;28;20057;-80
2023/02/11 05:08:42;;;;;;;41.53;15.80;;;;;;;-8.53;100.00;99261.78;5075568;28;20020;-80
2023/02/11 05:11:14;;;;;;;61.88;20.10;;;;;;;-8.49;100.00;99279.22;5058788;28;20034;-81
2023/02/11 05:13:40;;;;;;;37.90;14.50;;;;;;;-8.65;100.00;99253.50;5068484;28;20023;-81
2023/02/11 05:16:05;;;;;;;36.50;14.45;;;;;;;-8.51;100.00;99274.78;5072396;28;20067;-81
2023/02/11 05:18:31;;;;;;;42.90;15.90;;;;;;;-8.54;100.00;99269.47;5067894;28;20375;-81
2023/02/11 05:20:56;;;;;;;28.23;13.98;;;;;;;-8.64;100.00;99244.88;5064696;28;20023;-81
2023/02/11 05:23:22;;;;;;;47.42;16.20;;;;;;;-8.79;100.00;99218.34;5095190;28;20031;-80
2023/02/11 05:25:47;;;;;;;47.08;16.20;;;;;;;-8.84;100.00;99204.31;5078341;28;20118;-80
2023/02/11 05:28:13;;;;;;;48.33;18.55;;;;;;;-8.61;100.00;99257.97;5078469;28;20376;-81
2023/02/11 05:30:38;;;;;;;57.03;24.52;;;;;;;-8.60;100.00;99259.75;5078103;28;20475;-81
2023/02/11 05:33:04;;;;;;;76.22;31.00;;;;;;;-8.51;100.00;99257.53;5078311;28;20032;-80
2023/02/11 05:35:29;;;;;;;70.18;27.05;;;;;;;-8.53;100.00;99251.41;5070165;28;20038;-80
2023/02/11 05:37:55;;;;;;;56.28;22.00;;;;;;;-8.52;100.00;99247.97;5078190;28;20408;-79
2023/02/11 05:40:20;;;;;;;62.65;24.73;;;;;;;-8.70;100.00;99213.53;5085290;28;20061;-81
2023/02/11 05:42:49;;;;;;;57.53;22.35;;;;;;;-8.40;100.00;99260.56;5077894;28;20027;-82
2023/02/11 05:45:15;;;;;;;47.60;19.85;;;;;;;-8.33;100.00;99259.94;5078330;28;20031;-81
2023/02/11 05:47:40;;;;;;;58.47;23.63;;;;;;;-8.27;100.00;99275.72;5067714;28;20020;-80
2023/02/11 05:50:06;;;;;;;52.80;23.40;;;;;;;-8.38;100.00;99252.00;5066281;28;20031;-82
2023/02/11 05:52:32;;;;;;;52.22;24.23;;;;;;;-8.31;100.00;99259.22;5077989;28;20104;-81
2023/02/11 05:54:57;;;;;;;55.92;20.05;;;;;;;-8.11;100.00;99282.41;5078494;28;20027;-83
2023/02/11 05:57:23;;;;;;;50.25;20.75;;;;;;;-8.09;100.00;99276.44;5081036;28;20122;-83
2023/02/11 05:59:48;;;;;;;71.00;26.52;;;;;;;-8.08;100.00;99278.22;5071419;28;20489;-81
2023/02/11 06:02:14;;;;;;;74.50;28.92;;;;;;;-7.94;100.00;99270.97;5070612;28;20031;-80
2023/02/11 06:04:50;;;;;;;62.45;24.52;;;;;;;-7.96;100.00;99272.59;5065326;28;20019;-79
2023/02/11 06:07:16;;;;;;;70.50;26.02;;;;;;;-7.78;100.00;99262.91;5085841;28;20448;-78
2023/02/11 06:09:42;;;;;;;61.63;24.08;;;;;;;-7.73;100.00;99259.69;5065629;28;20029;-79
2023/02/11 06:12:07;;;;;;;65.22;28.40;;;;;;;-7.75;100.00;99263.06;5062156;28;20035;-81
2023/02/11 06:14:33;;;;;;;57.20;25.30;;;;;;;-7.74;100.00;99259.59;5061593;28;20059;-81
2023/02/11 06:16:59;;;;;;;60.67;24.85;;;;;;;-7.73;100.00;99246.69;5070887;28;20511;-81
2023/02/11 06:19:24;;;;;;;56.88;22.48;;;;;;;-7.37;100.00;99267.91;5084165;28;20031;-81
2023/02/11 06:21:50;;;;;;;54.88;22.50;;;;;;;-7.16;100.00;99245.25;5082588;28;20355;-80
2023/02/11 06:24:15;;;;;;;62.85;25.42;;;;;;;-5.97;100.00;99269.97;5069984;28;20032;-81
2023/02/11 06:26:41;;;;;;;67.45;26.70;;;;;;;-3.78;100.00;99280.13;5071654;28;20035;-84
2023/02/11 06:29:06;;;;;;;54.72;20.50;;;;;;;-1.91;100.00;99249.59;5059733;28;20023;-83
2023/02/11 06:31:32;;;;;;;57.05;24.75;;;;;;;-0.52;84.93;99204.81;5059879;28;20039;-83
2023/02/11 06:33:58;;;;;;;57.60;24.30;;;;;;;0.83;71.63;99199.44;5058210;28;20035;-84
2023/02/11 06:36:24;;;;;;;51.65;22.70;;;;;;;1.94;61.68;99158.22;5071275;28;20061;-81
2023/02/11 06:38:49;;;;;;;64.68;28.88;;;;;;;2.26;57.45;99138.78;5072849;28;20475;-82
2023/02/11 06:41:18;;;;;;;77.28;33.00;;;;;;;1.57;56.61;99116.94;5066125;28;20027;-81
2023/02/11 06:43:44;;;;;;;100.20;39.38;;;;;;;1.36;57.28;99106.44;5083601;28;20502;-81
2023/02/11 06:46:09;;;;;;;88.90;34.80;;;;;;;1.45;57.71;99109.94;5066237;28;20032;-82
2023/02/11 06:48:35;;;;;;;71.72;29.67;;;;;;;1.62;57.70;99102.03;5069309;28;20062;-83
2023/02/11 06:51:03;;;;;;;73.10;29.60;;;;;;;1.41;57.75;99102.94;5074373;28;20031;-83
2023/02/11 06:53:29;;;;;;;81.38;33.17;;;;;;;1.23;57.69;99091.53;5100114;28;20553;-82
2023/02/11 06:55:55;;;;;;;64.13;29.13;;;;;;;1.05;59.01;99090.63;5057084;28;20024;-84
2023/02/11 06:58:20;;;;;;;70.60;27.67;;;;;;;1.63;57.60;99082.69;5085221;28;20155;-80
2023/02/11 07:00:46;;;;;;;60.35;25.33;;;;;;;2.23;55.96;99080.72;5075850;28;20042;-80
2023/02/11 07:03:11;;;;;;;88.03;34.10;;;;;;;2.55;55.44;99090.22;5063398;28;20053;-79
2023/02/11 07:05:37;;;;;;;131.85;44.22;;;;;;;3.58;53.75;99108.00;5083548;28;20101;-81
2023/02/11 07:08:03;;;;;;;67.35;29.75;;;;;;;3.61;52.19;99070.03;5071006;28;20046;-81
2023/02/11 07:10:29;;;;;;;77.65;32.58;;;;;;;3.33;50.92;99042.97;5060336;28;20043;-80
2023/02/11 07:12:54;;;;;;;71.18;29.52;;;;;;;3.54;50.74;99050.72;5055144;28;20407;-79
2023/02/11 07:15:20;;;;;;;70.30;30.23;;;;;;;3.31;51.68;99050.06;5053801;28;20536;-80
2023/02/11 07:17:45;;;;;;;63.55;27.00;;;;;;;2.81;53.43;99046.94;5055299;28;20047;-80
2023/02/11 07:20:14;;;;;;;58.55;22.85;;;;;;;2.23;55.47;99036.75;5071257;28;20023;-82
2023/02/11 07:22:40;;;;;;;46.35;21.25;;;;;;;2.22;56.24;99039.38;5065694;28;20024;-80
2023/02/11 07:25:05;;;;;;;41.17;19.92;;;;;;;3.21;55.12;99072.19;5059359;28;20502;-79
2023/02/11 07:27:31;;;;;;;49.88;21.10;;;;;;;3.76;53.28;99054.00;5067871;28;20024;-81
2023/02/11 07:29:56;;;;;;;53.03;23.35;;;;;;;4.06;52.02;99058.94;5088097;28;20023;-81
2023/02/11 07:32:22;;;;;;;49.85;22.13;;;;;;;3.72;52.82;99047.88;5064313;28;20032;-81
2023/02/11 07:34:48;;;;;;;58.33;24.13;;;;;;;4.14;52.12;99056.22;5067159;28;20089;-80
2023/02/11 07:37:13;;;;;;;51.72;21.88;;;;;;;3.37;52.91;99018.28;5054066;28;20062;-81
2023/02/11 07:39:39;;;;;;;52.40;21.90;;;;;;;3.24;53.91;99029.84;5070131;28;20028;-80
2023/02/11 07:42:05;;;;;;;42.70;19.67;;;;;;;4.04;52.94;99057.22;5055295;28;20036;-80
2023/02/11 07:44:32;;;;;;;55.38;23.33;;;;;;;4.59;51.17;99026.47;5089122;28;20085;-80
2023/02/11 07:46:58;;;;;;;51.92;23.38;;;;;;;4.57;51.31;99038.88;5068231;28;20082;-81
2023/02/11 07:49:24;;;;;;;82.32;32.70;;;;;;;3.52;52.23;99007.53;5063239;28;20083;-79
2023/02/11 07:51:50;;;;;;;58.15;22.63;;;;;;;3.00;53.25;98993.06;5061830;28;20534;-80
2023/02/11 07:54:19;;;;;;;57.80;24.20;;;;;;;4.34;52.75;99059.50;5055779;28;20032;-80
2023/02/11 07:56:47;;;;;;;49.05;20.15;;;;;;;5.02;50.16;99049.69;5060734;28;20133;-80
2023/02/11 07:59:15;;;;;;;40.28;18.95;;;;;;;4.93;49.66;99024.19;5066018;28;20499;-79
2023/02/11 08:01:45;;;;;;;48.85;21.85;;;;;;;4.69;50.98;99022.78;5065443;28;20027;-80
2023/02/11 08:04:11;;;;;;;51.15;23.40;;;;;;;4.64;50.18;99006.09;5071408;28;20028;-80
2023/02/11 08:06:41;;;;;;;43.38;19.52;;;;;;;4.88;50.00;99018.97;5066021;28;20030;-80
2023/02/11 08:09:08;;;;;;;54.80;24.95;;;;;;;4.47;51.17;99007.22;5066840;28;20807;-79
2023/02/11 08:11:34;;;;;;;54.38;23.25;;;;;;;4.21;50.75;98994.38;5069460;28;20028;-79
2023/02/11 08:14:00;;;;;;;59.47;26.30;;;;;;;4.04;51.87;98998.97;5072532;28;20030;-79
2023/02/11 08:16:28;;;;;;;52.70;23.30;;;;;;;4.23;51.45;99005.78;5064711;28;20139;-79
2023/02/11 08:18:56;;;;;;;56.03;24.35;;;;;;;5.43;49.67;99034.84;5066465;28;20101;-78
2023/02/11 08:21:22;;;;;;;49.47;22.88;;;;;;;6.28;48.14;99041.16;5065801;28;20035;-76
2023/02/11 08:23:48;;;;;;;50.90;22.95;;;;;;;6.84;47.92;99037.28;5065033;28;20020;-80
2023/02/11 08:26:22;;;;;;;54.00;23.70;;;;;;;6.76;46.29;99004.69;5058728;28;20070;-79
2023/02/11 08:28:49;;;;;;;47.72;22.08;;;;;;;6.12;47.01;98980.44;5057249;28;20081;-80
2023/02/11 08:31:16;;;;;;;52.03;23.88;;;;;;;6.15;46.79;98991.88;5065882;28;20040;-79
2023/02/11 08:33:42;;;;;;;73.70;31.52;;;;;;;6.22;47.14;98984.63;5062959;28;20115;-79
2023/02/11 08:36:31;;;;;;;72.43;31.85;;;;;;;6.13;47.02;98982.16;5065967;28;20479;-78
2023/02/11 08:39:06;;;;;;;66.65;31.90;;;;;;;6.58;46.76;98994.47;5079982;28;20023;-79
2023/02/11 08:41:32;;;;;;;60.03;29.00;;;;;;;6.84;45.96;98980.53;5066613;28;20032;-79
2023/02/11 08:43:58;;;;;;;57.78;28.60;;;;;;;6.92;45.33;98984.75;5088095;28;20027;-80
2023/02/11 08:46:24;;;;;;;64.97;30.10;;;;;;;6.67;44.62;98959.69;5089591;28;20035;-80
2023/02/11 08:48:51;;;;;;;79.63;34.92;;;;;;;5.92;45.93;98947.19;5089082;28;20034;-80
2023/02/11 08:51:23;;;;;;;71.55;34.05;;;;;;;6.53;46.15;98961.78;5066696;28;20028;-80
2023/02/11 08:53:50;;;;;;;90.50;38.95;;;;;;;7.24;44.45;98981.31;5091892;28;20085;-79
2023/02/11 08:56:17;;;;;;;85.32;40.95;;;;;;;7.08;45.37;98961.31;5083647;28;20028;-80
2023/02/11 08:58:43;;;;;;;96.32;39.95;;;;;;;8.05;43.93;98994.19;5072016;28;20498;-80
2023/02/11 09:01:14;;;;;;;95.45;40.55;;;;;;;8.60;43.45;98995.22;5074605;28;20023;-80
2023/02/11 09:03:40;;;;;;;104.93;47.40;;;;;;;8.51;42.93;98974.19;5066072;28;20043;-80
2023/02/11 09:06:06;;;;;;;105.25;53.25;;;;;;;8.81;42.22;98986.56;5061516;28;20410;-80
2023/02/11 09:08:42;;;;;;;102.75;47.17;;;;;;;9.09;41.04;98951.84;5068535;28;20109;-80
2023/02/11 09:11:08;;;;;;;99.75;44.47;;;;;;;8.98;41.39;98959.34;5067899;28;20444;-80
2023/02/11 09:13:34;;;;;;;107.55;48.15;;;;;;;9.30;41.07;98955.56;5058669;28;20430;-80
2023/02/11 09:16:01;;;;;;;116.15;47.65;;;;;;;9.76;40.59;98956.56;5066937;28;20059;-79
2023/02/11 09:18:27;;;;;;;91.30;44.80;;;;;;;9.94;39.65;98922.94;5056368;28;20502;-80
2023/02/11 09:21:00;;;;;;;99.10;45.97;;;;;;;8.92;41.45;98914.16;5057896;28;20120;-79
2023/02/11 09:23:26;;;;;;;98.43;46.78;;;;;;;9.83;40.37;98941.19;5065195;28;20026;-79
2023/02/11 09:25:51;;;;;;;101.00;47.67;;;;;;;10.29;39.54;98935.91;5085040;28;20028;-80
2023/02/11 09:28:17;;;;;;;109.68;51.92;;;;;;;10.12;39.76;98913.38;5065651;28;20058;-79
2023/02/11 09:30:42;;;;;;;104.38;49.28;;;;;;;10.24;38.48;98895.06;5070833;28;20031;-79
2023/02/11 09:33:08;;;;;;;118.20;52.80;;;;;;;10.82;38.26;98914.16;5066697;28;20024;-80
2023/02/11 09:35:33;;;;;;;113.22;53.35;;;;;;;10.57;38.62;98892.00;5072695;28;20031;-79
2023/02/11 09:38:05;;;;;;;114.40;53.30;;;;;;;10.14;38.45;98866.09;5060160;28;20043;-80
2023/02/11 09:40:32;;;;;;;107.32;52.05;;;;;;;10.03;38.46;98860.28;5086909;28;20027;-79
2023/02/11 09:43:18;;;;;;;102.45;48.50;;;;;;;8.99;39.56;98833.84;5063460;28;20038;-79
2023/02/11 09:45:44;;;;;;;101.88;44.88;;;;;;;9.37;39.31;98852.97;5084730;28;20016;-79
2023/02/11 09:48:14;;;;;;;97.97;46.42;;;;;;;9.87;39.10;98851.09;5067367;28;20056;-79
2023/02/11 09:50:48;;;;;;;80.47;39.55;;;;;;;9.76;38.00;98822.97;5063241;28;20032;-79
2023/02/11 09:53:55;;;;;;;;;;;;;;;;;;;;;
2023/02/11 09:57:04;;;;;;;69.60;31.83;;;;;;;8.87;38.79;98758.69;5100548;28;20038;-78
2023/02/11 09:59:30;;;;;;;63.83;31.42;;;;;;;9.22;39.15;98817.03;5058223;28;20400;-78
2023/02/11 10:02:00;;;;;;;76.53;34.35;;;;;;;9.19;38.69;98788.63;5064016;28;20034;-79
2023/02/11 10:04:52;;;;;;;86.00;41.15;;;;;;;10.27;37.07;98824.56;5069317;28;20035;-79
2023/02/11 10:07:26;;;;;;;65.18;32.45;;;;;;;11.44;36.12;98857.94;5073909;28;20047;-79
2023/02/11 10:11:08;;;;;;;111.20;51.40;;;;;;;12.44;34.07;98808.50;5092239;28;20027;-78
2023/02/11 10:14:21;;;;;;;81.82;42.85;;;;;;;11.07;34.58;98770.31;4998309;28;20502;-80
2023/02/11 10:16:57;;;;;;;86.38;38.70;;;;;;;10.79;35.18;98745.66;4997487;28;20050;-79
2023/02/11 10:19:51;;;;;;;85.82;42.38;;;;;;;12.12;33.21;98789.56;5062895;28;20515;-79
2023/02/11 10:22:28;;;;;;;82.47;40.20;;;;;;;13.62;31.81;98814.06;5055050;28;20104;-79
2023/02/11 10:24:59;;;;;;;66.00;31.70;;;;;;;13.40;32.69;98758.78;5081989;28;20377;-79
2023/02/11 10:27:54;;;;;;;68.38;33.97;;;;;;;11.88;34.48;98689.69;5072849;28;20129;-79
2023/02/11 10:31:00;;;;;;;100.18;45.35;;;;;;;11.07;35.13;98651.59;5063757;28;20039;-79
2023/02/11 10:33:40;;;;;;;81.32;37.40;;;;;;;11.39;34.98;98678.63;5082627;28;20040;-79
2023/02/11 10:36:30;;;;;;;76.25;36.67;;;;;;;12.13;34.01;98716.19;5081355;28;20028;-79
2023/02/11 10:39:03;;;;;;;77.43;34.60;;;;;;;11.68;33.81;98676.38;5068351;28;20020;-80
2023/02/11 10:41:44;;;;;;;74.70;37.33;;;;;;;12.66;33.23;98705.41;5063628;28;20028;-78
2023/02/11 10:44:29;;;;;;;69.85;37.28;;;;;;;13.97;30.61;98663.22;5087006;28;20028;-79
2023/02/11 10:46:55;;;;;;;74.47;39.35;;;;;;;14.70;31.09;98703.81;5064934;28;20059;-79
2023/02/11 10:49:43;;;;;;;68.50;36.10;;;;;;;15.36;29.80;98729.31;5056686;28;20056;-79
2023/02/11 10:52:31;;;;;;;64.35;33.90;;;;;;;14.06;29.75;98602.59;5074857;28;20115;-80
2023/02/11 10:55:32;;;;;;;64.85;34.53;;;;;;;14.42;30.14;98673.16;5060213;28;20028;-78
2023/02/11 10:58:00;;;;;;;68.85;34.88;;;;;;;14.00;29.83;98657.66;5064625;28;20412;-78
2023/02/11 11:00:45;;;;;;;76.70;35.70;;;;;;;14.36;29.67;98664.56;5079786;28;20028;-80
2023/02/11 11:03:31;;;;;;;51.50;26.65;;;;;;;14.53;28.91;98646.44;5090538;28;20104;-79
2023/02/11 11:06:01;;;;;;;64.97;32.85;;;;;;;14.22;29.16;98603.44;5054039;28;20040;-79
2023/02/11 11:08:41;;;;;;;64.25;33.05;;;;;;;14.25;29.17;98624.78;5070894;28;20044;-79
2023/02/11 11:11:18;;;;;;;64.20;31.88;;;;;;;13.47;29.45;98581.91;5090638;28;20024;-78
2023/02/11 11:13:59;;;;;;;65.07;34.38;;;;;;;14.35;28.82;98604.47;5061690;28;20027;-78
2023/02/11 11:16:36;;;;;;;44.13;20.42;;;;;;;14.89;27.91;98631.72;5070208;28;20050;-78
2023/02/11 11:19:07;;;;;;;34.45;18.08;;;;;;;14.34;27.57;98585.72;5068314;28;20024;-77
2023/02/11 11:21:50;;;;;;;44.77;23.90;;;;;;;12.17;29.72;98498.69;5072483;28;20458;-78
2023/02/11 11:24:23;;;;;;;37.55;19.33;;;;;;;12.45;29.49;98546.38;5090402;28;20104;-78
2023/02/11 11:26:54;;;;;;;30.73;14.52;;;;;;;12.46;29.32;98538.22;5078298;28;20085;-78
2023/02/11 11:29:27;;;;;;;32.80;16.75;;;;;;;12.99;28.94;98574.72;5053118;28;20029;-78
2023/02/11 11:32:03;;;;;;;30.67;13.25;;;;;;;12.76;28.28;98545.59;5053054;28;20036;-77
2023/02/11 11:34:37;;;;;;;26.77;14.15;;;;;;;13.90;27.16;98586.53;5080009;28;20032;-79